Jefferson Hills, Pennsylvania
Current Conditions -  °F | °C
As of 6:53 AM on Wednesday 28 Jan 2015 (Local Time) from KAGC Reporting Station
Light Snow Light Snow  
Wind Chill:   Ceiling: 1100
Heat Index: 12°   Visibility: 3mi
Dew Point:   Wind: 9mph
Humidity: 77%   Direction: 290°WNW
Pressure: 30.25"   Gusts: NA
Location:  40.2958°N, 79.9241°W
Report Text: KAGC 281153Z 29008KT 3SM -SN OVC011 M11/M14 A3025 RMK AO2 SNB1054 SLP271 P0000 60000 70001 T11111144 11083 21117 53024
Loading
Personal Weather Stations






























Interactive Weather Map New forecast layout! Learn more

10-Day Weather Forecast

Advertisements
Track Severe Weather on mobile